Wakarusa, IN

11:53 PM EST on December 02, 2016 (GMT -0500)
HADS | | Change Station

Elev 728 ft 41.58 °N, 86.52 °W | Updated 1 hour ago

Overcast
Overcast
37.0 °F
Feels Like 37.0 °F
N
0.0
Wind Variable Wind from North
Gusts 0.0 mph

Today
High -- | Low -- °F
--% Chance of Precip.
Yesterday
High -- | Low -- °F
Precip. -- in
Pressure 30.30 in
Visibility 10.0 miles
Clouds Overcast 3400 ft
Dew Point 23.0 °F
Humidity 56%
Rainfall in
Snow Depth Not available.
7:52 AM 5:14 PM
Waxing Crescent, 12% visible
METAR KGSH 030353Z AUTO 29004KT 10SM OVC034 02/M03 A3028 RMK AO2 SLP260 T00171028
Pressure 30.30 in
Visibility 10.0 miles
Clouds Overcast 3400 ft
Dew Point 23.0 °F
Humidity 56%
Rainfall in
Snow Depth Not available.
7:52 AM 5:14 PM
Waxing Crescent, 12% visible
METAR KGSH 030353Z AUTO 29004KT 10SM OVC034 02/M03 A3028 RMK AO2 SLP260 T00171028

10-Day Weather Forecast

Almanac

Astronomy

Dec. 02, 2016 Rise Set
Actual Time
Civil Twilight
Nautical Twilight
Astronomical Twilight
Moon
Length of Visible Light
Length of Day
Tomorrow will be .
, % of the Moon is Illuminated

Today's Extremes

State Highs State Lows

Community

WunderPhotos

Upload Photos

1,955,411 photos uploaded!

WunderBlog® & News

Nearby

Air Quality

  Air Quality AQ Index Pollutant
Not available.

Snow Depth

Station Depth Elevation

Earthquake Activity

City Distance Mag. Time & Date
Minimum magnitude displayed is 2.5.

Coastal Water Temperatures

Place Temperature

Stations

Nearby Weather Stations

Station Location Temp. Windchill Dew Point Humidity Wind Precip. Elev Updated Type
                   

Watches & Warnings

There are currently no watches in effect.